Latest Weather Observations for Orbost

IDV60801

Issued at 6:05 pm EST Monday 1 September 2014 (issued every 30 minutes, with the page automatically refreshed every 10 minutes)

About weather observations | Map of weather stations | Latest weather observations for VIC | Other Formats
Station Details ID: 084145 Name: ORBOST Lat: -37.69 Lon: 148.47 Height: 62.65 m
Data from the previous 72 hours. | See also: Recent months at Orbost
Date/Time
EST
Temp
°C
App
Temp
°C
Dew
Point
Rel
Hum
%
Delta-T
°C
Wind Press
QNH
hPa
Press
MSL
hPa
Rain
since 9 am
mm
Dir
 
Spd
km/h
Gust
km/h
Spd
kts
Gust
kts
01/06:00pm 13.4 12.2 9.5 77 2.0 W 6 11 3 6 1008.5 1008.5 0.0
01/05:30pm 14.2 10.6 8.4 68 2.9 WSW 17 30 9 16 1008.4 1008.4 0.0
01/05:00pm 16.5 11.6 6.9 53 4.8 WSW 22 41 12 22 1007.0 1007.0 0.0
01/04:30pm 19.6 15.8 5.6 40 6.9 NNW 15 20 8 11 1005.5 1005.5 0.0
01/04:00pm 19.3 17.1 7.7 47 6.0 NNE 9 13 5 7 1005.3 1005.3 0.0
01/03:30pm 19.1 17.6 9.0 52 5.3 NE 7 13 4 7 1005.7 1005.7 0.0
01/03:00pm 19.0 18.1 9.2 53 5.2 NW 4 6 2 3 1006.1 1006.1 0.0
01/02:30pm 18.5 17.8 8.7 53 5.1 N 2 4 1 2 1006.3 1006.3 0.0
01/02:00pm 18.0 17.1 9.4 57 4.5 NW 4 7 2 4 1006.5 1006.5 0.0
01/01:30pm 18.2 16.6 6.4 46 5.9 NNE 4 7 2 4 1006.7 1006.7 0.0
01/01:00pm 18.4 16.3 5.9 44 6.2 NE 6 9 3 5 1007.2 1007.2 0.0
01/12:30pm 18.9 16.8 5.7 42 6.5 NNE 6 9 3 5 1008.0 1007.9 0.0
01/12:00pm 19.5 16.8 5.6 40 6.9 N 9 17 5 9 1008.7 1008.7 0.0
01/11:30am 20.3 17.4 6.3 40 7.0 NNW 11 17 6 9 1009.2 1009.2 0.0
01/11:00am 20.1 18.2 7.5 44 6.5 W 7 11 4 6 1009.5 1009.5 0.0
01/10:30am 21.3 18.6 7.5 41 7.2 N 11 20 6 11 1009.4 1009.4 0.0
01/10:00am 17.4 16.0 9.6 60 4.1 NW 7 11 4 6 1010.0 1010.0 0.0
01/09:30am 15.4 14.7 8.4 63 3.5 SW 2 4 1 2 1010.2 1010.2 0.0
01/09:00am 14.8 14.5 8.7 67 3.1 CALM 0 0 0 0 1010.4 1010.4 0.0
01/08:30am 12.9 12.2 8.4 74 2.2 SE 2 7 1 4 1010.8 1010.8 0.0
01/08:00am 12.4 10.7 7.5 72 2.4 E 6 7 3 4 1011.2 1011.2 0.0
01/07:30am 10.6 8.9 5.8 72 2.2 S 4 6 2 3 1011.6 1011.6 0.0
01/07:00am 10.2 8.8 5.6 73 2.1 SSE 2 4 1 2 1011.5 1011.5 0.0
01/06:30am 11.1 10.1 5.8 70 2.5 CALM 0 0 0 0 1011.5 1011.5 0.0
01/06:00am 11.8 10.7 5.0 63 3.1 S 0 0 0 0 1011.1 1011.1 0.0
01/05:30am 10.6 9.1 5.2 69 2.5 SE 2 6 1 3 1011.0 1011.0 0.0
01/05:00am 13.0 10.6 5.2 59 3.6 N 7 11 4 6 1010.9 1010.9 0.0
01/04:30am 13.9 11.6 4.8 54 4.2 N 6 11 3 6 1011.1 1011.1 0.0
01/04:00am 12.1 10.3 5.5 64 3.1 N 4 4 2 2 1011.1 1011.1 0.0
01/03:30am 11.5 10.5 5.6 67 2.7 CALM 0 6 0 3 1011.3 1011.3 0.0
01/03:00am 10.9 9.6 5.9 71 2.3 NNE 2 4 1 2 1011.7 1011.7 0.0
01/02:30am 12.2 10.0 6.3 67 2.8 N 7 9 4 5 1011.9 1011.9 0.0
01/02:00am 11.4 9.8 6.5 72 2.3 ENE 4 6 2 3 1012.3 1012.3 0.0
01/01:30am 11.4 9.9 6.9 74 2.1 NNE 4 11 2 6 1013.0 1013.0 0.0
01/01:00am 11.2 10.2 7.3 77 1.9 NE 2 6 1 3 1013.4 1013.4 0.0
01/12:30am 11.4 10.9 7.7 78 1.8 CALM 0 0 0 0 1013.8 1013.8 0.0
01/12:00am 10.8 9.6 7.9 82 1.4 NNE 4 6 2 3 1013.9 1013.9 0.0
 
Date/Time
EST
Temp
°C
App
Temp
°C
Dew
Point
Rel
Hum
%
Delta-T
°C
Wind Press
QNH
hPa
Press
MSL
hPa
Rain
since 9 am
mm
Dir
 
Spd
km/h
Gust
km/h
Spd
kts
Gust
kts
31/11:30pm 9.7 8.2 7.0 83 1.3 NNW 4 7 2 4 1014.2 1014.2 0.0
31/11:00pm 10.8 9.6 8.2 84 1.3 N 4 6 2 3 1014.4 1014.4 0.0
31/10:30pm 10.3 9.8 7.9 85 1.2 CALM 0 0 0 0 1014.7 1014.7 0.0
31/10:00pm 11.4 11.0 8.3 81 1.5 CALM 0 0 0 0 1014.9 1015.0 0.0
31/09:30pm 11.1 9.6 8.3 83 1.4 N 6 7 3 4 1015.1 1015.2 0.0
31/09:00pm 10.3 8.6 7.7 84 1.3 N 6 7 3 4 1015.2 1015.3 0.0
31/08:30pm 12.3 11.7 7.6 73 2.3 CALM 0 0 0 0 1015.3 1015.4 0.0
31/08:00pm 11.4 10.7 7.1 75 2.1 NNW 0 4 0 2 1015.4 1015.5 0.0
31/07:30pm 13.5 13.0 7.9 69 2.8 CALM 0 0 0 0 1015.5 1015.6 0.0
31/07:00pm 12.5 11.5 7.4 71 2.5 W 2 4 1 2 1015.4 1015.5 0.0
31/06:30pm 13.9 12.3 8.1 68 2.9 ENE 6 7 3 4 1015.3 1015.4 0.0
31/06:00pm 13.4 11.8 8.0 70 2.7 ENE 6 7 3 4 1015.4 1015.5 0.0
31/05:30pm 14.6 13.4 8.1 65 3.3 E 4 6 2 3 1015.4 1015.5 0.0
31/05:00pm 16.2 14.8 8.9 62 3.8 ESE 6 7 3 4 1015.4 1015.5 0.0
31/04:30pm 17.1 15.2 7.5 53 4.8 SSE 7 11 4 6 1015.4 1015.5 0.0
31/04:00pm 17.7 15.9 7.2 50 5.3 SSE 6 11 3 6 1015.4 1015.5 0.0
31/03:30pm 18.3 16.7 8.8 54 4.9 SE 7 11 4 6 1015.5 1015.6 0.0
31/03:00pm 18.2 16.7 9.0 55 4.8 SE 7 13 4 7 1015.7 1015.8 0.0
31/02:30pm 18.3 16.8 9.1 55 4.8 SSE 7 9 4 5 1016.0 1016.1 0.0
31/02:00pm 18.6 17.6 10.9 61 4.2 SE 7 11 4 6 1016.5 1016.6 0.0
31/01:30pm 18.5 17.2 11.1 62 4.0 S 9 13 5 7 1016.9 1017.0 0.0
31/01:00pm 19.6 18.5 10.0 54 5.1 W 6 9 3 5 1017.3 1017.4 0.0
31/12:30pm 19.0 17.3 7.4 47 5.9 W 6 11 3 6 1017.5 1017.6 0.0
31/12:00pm 18.1 16.5 7.8 51 5.2 W 6 11 3 6 1017.9 1018.0 0.0
31/11:30am 17.3 16.1 8.2 55 4.7 W 4 7 2 4 1018.5 1018.6 0.0
31/11:00am 17.3 16.8 9.2 59 4.2 WSW 2 7 1 4 1018.9 1019.0 0.0
31/10:30am 15.3 14.8 9.2 67 3.1 WNW 2 6 1 3 1019.3 1019.4 0.0
31/10:00am 13.9 12.9 8.7 71 2.6 W 4 6 2 3 1019.7 1019.8 0.0
31/09:30am 12.7 11.8 9.2 79 1.8 WNW 4 6 2 3 1019.9 1020.0 0.0
31/09:00am 11.3 11.1 9.0 86 1.1 CALM 0 4 0 2 1020.0 1020.1 0.2
31/08:30am 9.5 9.1 8.4 93 0.5 CALM 0 0 0 0 1020.2 1020.3 0.2
31/08:00am 8.3 7.8 7.9 97 0.2 CALM 0 4 0 2 1020.3 1020.4 0.2
31/07:30am 7.2 6.0 6.6 96 0.3 N 2 4 1 2 1020.2 1020.3 0.2
31/07:00am 6.5 5.2 6.1 97 0.2 N 2 4 1 2 1020.0 1020.1 0.2
31/06:30am 6.2 5.3 5.9 98 0.1 CALM 0 4 0 2 1019.9 1020.0 0.0
31/06:00am 6.4 5.5 6.1 98 0.1 CALM 0 0 0 0 1019.9 1020.0 0.0
31/05:30am 5.4 3.5 5.1 98 0.1 N 4 4 2 2 1019.8 1019.9 0.0
31/05:00am 6.4 5.1 6.1 98 0.1 N 2 4 1 2 1019.7 1019.8 0.0
31/04:30am 5.8 4.0 5.5 98 0.1 NNW 4 4 2 2 1019.6 1019.7 0.0
31/04:00am 5.9 4.1 5.6 98 0.1 N 4 7 2 4 1019.6 1019.7 0.0
31/03:30am 5.5 4.0 5.2 98 0.1 N 2 4 1 2 1019.9 1020.0 0.0
31/03:00am 6.0 5.0 5.7 98 0.1 CALM 0 2 0 1 1020.3 1020.4 0.0
31/02:30am 6.4 4.4 6.1 98 0.1 N 6 6 3 3 1020.5 1020.6 0.0
31/02:00am 6.9 5.0 6.6 98 0.1 N 6 6 3 3 1021.0 1021.1 0.0
31/01:30am 7.4 5.6 7.1 98 0.1 N 6 7 3 4 1021.4 1021.5 0.0
31/01:00am 6.7 5.5 6.3 97 0.2 E 2 4 1 2 1021.7 1021.8 0.0
31/12:30am 7.2 6.5 6.8 97 0.2 CALM 0 0 0 0 1021.8 1021.9 0.0
31/12:00am 7.8 6.8 7.4 97 0.2 NNW 2 4 1 2 1021.9 1022.0 0.0
 
Date/Time
EST
Temp
°C
App
Temp
°C
Dew
Point
Rel
Hum
%
Delta-T
°C
Wind Press
QNH
hPa
Press
MSL
hPa
Rain
since 9 am
mm
Dir
 
Spd
km/h
Gust
km/h
Spd
kts
Gust
kts
30/11:30pm 7.6 6.5 7.0 96 0.3 ENE 2 6 1 3 1022.1 1022.2 0.0
30/11:00pm 8.8 8.1 8.4 97 0.2 N 2 4 1 2 1022.4 1022.5 0.0
30/10:30pm 9.0 8.6 8.4 96 0.3 CALM 0 4 0 2 1022.5 1022.6 0.0
30/10:00pm 9.6 9.3 8.8 95 0.4 CALM 0 0 0 0 1022.8 1022.9 0.0
30/09:30pm 9.7 9.4 8.8 94 0.4 CALM 0 0 0 0 1022.9 1023.0 0.0
30/09:00pm 10.0 9.8 9.1 94 0.4 CALM 0 0 0 0 1023.0 1023.1 0.0
30/08:30pm 10.0 9.3 8.6 91 0.7 NE 2 6 1 3 1023.0 1023.1 0.0
30/08:00pm 11.4 10.1 9.1 86 1.1 E 6 11 3 6 1023.1 1023.2 0.0
30/07:30pm 11.6 10.4 9.5 87 1.1 E 6 9 3 5 1023.1 1023.2 0.0
30/07:00pm 11.6 10.3 9.3 86 1.2 E 6 9 3 5 1023.2 1023.3 0.0
30/06:30pm 12.1 10.9 9.5 84 1.3 ESE 6 11 3 6 1023.2 1023.3 0.0
30/06:00pm 12.4 11.2 9.6 83 1.4 ESE 6 11 3 6 1023.3 1023.4 0.0
30/05:30pm 13.3 12.1 9.7 79 1.8 ESE 6 9 3 5 1023.4 1023.5 0.0
30/05:00pm 14.1 12.8 9.9 76 2.2 ESE 7 11 4 6 1023.4 1023.5 0.0
30/04:30pm 14.7 12.7 10.1 74 2.4 SE 11 17 6 9 1023.4 1023.5 0.0
30/04:00pm 15.3 13.6 9.9 70 2.8 SE 9 19 5 10 1023.5 1023.6 0.0
30/03:30pm 15.4 13.7 10.0 70 2.8 SE 9 19 5 10 1023.6 1023.7 0.0
30/03:00pm 15.5 13.0 9.6 68 3.1 SE 13 22 7 12 1023.7 1023.8 0.0
30/02:30pm 15.8 13.6 9.2 65 3.4 SSE 11 20 6 11 1024.0 1024.0 0.0
30/02:00pm 15.8 14.0 9.5 66 3.3 SSE 9 15 5 8 1024.5 1024.5 0.0
30/01:30pm 15.7 13.0 9.1 65 3.4 S 13 20 7 11 1024.8 1024.8 0.0
30/01:00pm 16.1 14.3 9.5 65 3.4 SSE 9 20 5 11 1025.2 1025.2 0.0
30/12:30pm 15.5 13.6 9.0 65 3.3 SSE 9 15 5 8 1025.8 1025.8 0.0
30/12:00pm 14.9 12.8 8.2 64 3.4 SE 9 15 5 8 1026.5 1026.5 0.0
30/11:30am 15.0 13.4 8.0 63 3.5 SSE 6 11 3 6 1027.1 1027.1 0.0
30/11:00am 14.3 12.7 7.8 65 3.2 S 6 11 3 6 1027.5 1027.5 0.0
30/10:30am 13.6 12.3 7.8 68 2.9 WSW 4 7 2 4 1027.9 1027.9 0.0
30/10:00am 12.6 11.6 8.9 78 1.8 WNW 4 7 2 4 1028.2 1028.3 0.0
30/09:30am 11.0 10.0 8.9 87 1.0 W 4 6 2 3 1028.5 1028.6 0.0
30/09:00am 8.9 7.7 8.0 94 0.4 W 4 4 2 2 1028.6 1028.7 0.2
30/08:30am 7.2 5.7 6.9 98 0.1 NW 4 6 2 3 1028.8 1028.9 0.2
30/08:00am 7.0 6.3 6.9 99 0.0 CALM 0 0 0 0 1028.7 1028.8 0.2
30/07:30am 5.4 4.0 5.3 99 0.0 NNE 2 6 1 3 1028.6 1028.7 0.2
30/07:00am 5.0 3.9 4.9 99 0.0 CALM 0 0 0 0 1028.7 1028.8 0.2
30/06:30am 4.8 3.6 4.7 99 0.0 CALM 0 0 0 0 1028.4 1028.5 0.2
30/06:00am 5.3 4.2 5.2 99 0.0 CALM 0 0 0 0 1028.3 1028.4 0.2
30/05:30am 5.4 4.0 5.3 99 0.0 NNW 2 4 1 2 1028.3 1028.4 0.2
30/05:00am 5.5 4.5 5.4 99 0.0 CALM 0 0 0 0 1028.2 1028.3 0.2
30/04:30am 6.1 5.2 6.0 99 0.0 CALM 0 0 0 0 1028.3 1028.4 0.2
30/04:00am 5.5 4.4 5.2 98 0.1 CALM 0 0 0 0 1028.2 1028.3 0.2
30/03:30am 6.0 5.0 5.7 98 0.1 CALM 0 0 0 0 1028.3 1028.4 0.2
30/03:00am 6.2 5.3 5.9 98 0.1 CALM 0 0 0 0 1028.3 1028.4 0.2
30/02:30am 6.4 5.5 6.0 97 0.2 CALM 0 0 0 0 1028.4 1028.5 0.2
30/02:00am 6.9 6.1 6.5 97 0.2 CALM 0 0 0 0 1028.5 1028.6 0.2
30/01:30am 7.0 6.2 6.6 97 0.2 CALM 0 2 0 1 1028.7 1028.8 0.2
30/01:00am 6.7 5.9 6.3 97 0.2 CALM 0 0 0 0 1028.8 1028.9 0.2
30/12:30am 8.4 7.9 8.0 97 0.2 CALM 0 0 0 0 1028.8 1028.9 0.2
30/12:00am 8.5 8.1 8.1 97 0.2 CALM 0 0 0 0 1028.9 1029.0 0.2
 
Date/Time
EST
Temp
°C
App
Temp
°C
Dew
Point
Rel
Hum
%
Delta-T
°C
Wind Press
QNH
hPa
Press
MSL
hPa
Rain
since 9 am
mm
Dir
 
Spd
km/h
Gust
km/h
Spd
kts
Gust
kts
29/11:30pm 8.7 8.3 8.1 96 0.3 CALM 0 0 0 0 1029.0 1029.1 0.2
29/11:00pm 8.2 7.6 7.4 95 0.4 CALM 0 4 0 2 1028.8 1028.9 0.2
29/10:30pm 8.9 8.4 7.8 93 0.5 CALM 0 2 0 1 1028.8 1028.9 0.2
29/10:00pm 10.4 9.7 8.5 88 0.9 ENE 2 6 1 3 1028.9 1029.0 0.2
29/09:30pm 10.2 9.1 8.6 90 0.8 ENE 4 6 2 3 1028.9 1029.0 0.2
29/09:00pm 10.0 8.4 7.9 87 1.0 E 6 9 3 5 1028.8 1028.9 0.2
29/08:30pm 10.3 8.8 8.4 88 0.9 E 6 9 3 5 1028.8 1028.9 0.2
29/08:00pm 10.4 9.4 8.7 89 0.8 E 4 9 2 5 1028.8 1028.9 0.2
29/07:30pm 11.0 9.8 9.4 90 0.8 E 6 9 3 5 1028.7 1028.8 0.2
29/07:00pm 10.6 9.6 8.9 89 0.8 ESE 4 4 2 2 1028.6 1028.7 0.2
29/06:30pm 11.5 10.7 9.8 89 0.9 ESE 4 6 2 3 1028.3 1028.4 0.2

Other Formats:

Comma delimited format used in spreadsheet applications
http://www.bom.gov.au/fwo/IDV60801/IDV60801.95918.axf

JavaScript Object Notation format (JSON) in row-major order
http://www.bom.gov.au/fwo/IDV60801/IDV60801.95918.json